sensor_id;sensor_type;location;lat;lon;timestamp;temperature;humidity
17202;DHT22;8717;53.588;10.176;2023-10-08T00:02:04;10.00;99.90
17202;DHT22;8717;53.588;10.176;2023-10-08T00:04:32;10.00;99.90
17202;DHT22;8717;53.588;10.176;2023-10-08T00:07:04;10.00;99.90
17202;DHT22;8717;53.588;10.176;2023-10-08T00:09:33;10.00;99.90
17202;DHT22;8717;53.588;10.176;2023-10-08T00:12:03;10.00;99.90
17202;DHT22;8717;53.588;10.176;2023-10-08T00:14:30;10.00;99.90
17202;DHT22;8717;53.588;10.176;2023-10-08T00:16:58;10.00;99.90
17202;DHT22;8717;53.588;10.176;2023-10-08T00:19:25;10.00;99.90
17202;DHT22;8717;53.588;10.176;2023-10-08T00:21:59;10.00;99.90
17202;DHT22;8717;53.588;10.176;2023-10-08T00:24:31;10.00;99.90
17202;DHT22;8717;53.588;10.176;2023-10-08T00:26:59;10.10;99.90
17202;DHT22;8717;53.588;10.176;2023-10-08T00:29:26;10.00;99.90
17202;DHT22;8717;53.588;10.176;2023-10-08T00:31:53;10.00;99.90
17202;DHT22;8717;53.588;10.176;2023-10-08T00:34:22;10.00;99.90
17202;DHT22;8717;53.588;10.176;2023-10-08T00:36:50;10.00;99.90
17202;DHT22;8717;53.588;10.176;2023-10-08T00:39:18;9.90;99.90
17202;DHT22;8717;53.588;10.176;2023-10-08T00:41:51;9.90;99.90
17202;DHT22;8717;53.588;10.176;2023-10-08T00:44:23;9.90;99.90
17202;DHT22;8717;53.588;10.176;2023-10-08T00:46:55;9.90;99.90
17202;DHT22;8717;53.588;10.176;2023-10-08T00:49:27;9.90;99.90
17202;DHT22;8717;53.588;10.176;2023-10-08T00:52:16;9.90;99.90
17202;DHT22;8717;53.588;10.176;2023-10-08T00:55:04;9.90;99.90
17202;DHT22;8717;53.588;10.176;2023-10-08T00:57:36;9.90;99.90
17202;DHT22;8717;53.588;10.176;2023-10-08T01:00:08;9.90;99.90
17202;DHT22;8717;53.588;10.176;2023-10-08T01:02:42;9.90;99.90
17202;DHT22;8717;53.588;10.176;2023-10-08T01:05:12;9.90;99.90
17202;DHT22;8717;53.588;10.176;2023-10-08T01:07:42;9.90;99.90
17202;DHT22;8717;53.588;10.176;2023-10-08T01:10:11;9.90;99.90
17202;DHT22;8717;53.588;10.176;2023-10-08T01:12:46;9.80;99.90
17202;DHT22;8717;53.588;10.176;2023-10-08T01:15:29;9.80;99.90
17202;DHT22;8717;53.588;10.176;2023-10-08T01:18:01;9.80;99.90
17202;DHT22;8717;53.588;10.176;2023-10-08T01:20:30;9.80;99.90
17202;DHT22;8717;53.588;10.176;2023-10-08T01:23:03;9.90;99.90
17202;DHT22;8717;53.588;10.176;2023-10-08T01:25:36;9.80;99.90
17202;DHT22;8717;53.588;10.176;2023-10-08T01:28:05;9.80;99.90
17202;DHT22;8717;53.588;10.176;2023-10-08T01:30:41;9.80;99.90
17202;DHT22;8717;53.588;10.176;2023-10-08T01:33:08;9.80;99.90
17202;DHT22;8717;53.588;10.176;2023-10-08T01:35:39;9.80;99.90
17202;DHT22;8717;53.588;10.176;2023-10-08T01:38:08;9.80;99.90
17202;DHT22;8717;53.588;10.176;2023-10-08T01:40:40;9.80;99.90
17202;DHT22;8717;53.588;10.176;2023-10-08T01:43:07;9.80;99.90
17202;DHT22;8717;53.588;10.176;2023-10-08T01:45:38;9.80;99.90
17202;DHT22;8717;53.588;10.176;2023-10-08T01:48:08;9.80;99.90
17202;DHT22;8717;53.588;10.176;2023-10-08T01:50:36;9.80;99.90
17202;DHT22;8717;53.588;10.176;2023-10-08T01:53:04;9.80;99.90
17202;DHT22;8717;53.588;10.176;2023-10-08T01:55:36;9.70;99.90
17202;DHT22;8717;53.588;10.176;2023-10-08T01:58:16;9.70;99.90
17202;DHT22;8717;53.588;10.176;2023-10-08T02:00:44;9.80;99.90
17202;DHT22;8717;53.588;10.176;2023-10-08T02:03:13;9.80;99.90
17202;DHT22;8717;53.588;10.176;2023-10-08T02:05:42;9.80;99.90
17202;DHT22;8717;53.588;10.176;2023-10-08T02:08:10;9.80;99.90
17202;DHT22;8717;53.588;10.176;2023-10-08T02:10:41;9.70;99.90
17202;DHT22;8717;53.588;10.176;2023-10-08T02:13:09;9.80;99.90
17202;DHT22;8717;53.588;10.176;2023-10-08T02:15:36;9.80;99.90
17202;DHT22;8717;53.588;10.176;2023-10-08T02:18:04;9.70;99.90
17202;DHT22;8717;53.588;10.176;2023-10-08T02:20:32;9.70;99.90
17202;DHT22;8717;53.588;10.176;2023-10-08T02:22:59;9.80;99.90
17202;DHT22;8717;53.588;10.176;2023-10-08T02:25:26;9.80;99.90
17202;DHT22;8717;53.588;10.176;2023-10-08T02:27:54;9.70;99.90
17202;DHT22;8717;53.588;10.176;2023-10-08T02:30:21;9.70;99.90
17202;DHT22;8717;53.588;10.176;2023-10-08T02:32:47;9.70;99.90
17202;DHT22;8717;53.588;10.176;2023-10-08T02:35:15;9.70;99.90
17202;DHT22;8717;53.588;10.176;2023-10-08T02:37:42;9.70;99.90
17202;DHT22;8717;53.588;10.176;2023-10-08T02:40:11;9.60;99.90
17202;DHT22;8717;53.588;10.176;2023-10-08T02:42:45;9.60;99.90
17202;DHT22;8717;53.588;10.176;2023-10-08T02:45:14;9.60;99.90
17202;DHT22;8717;53.588;10.176;2023-10-08T02:47:42;9.60;99.90
17202;DHT22;8717;53.588;10.176;2023-10-08T02:50:10;9.60;99.90
17202;DHT22;8717;53.588;10.176;2023-10-08T02:52:42;9.60;99.90
17202;DHT22;8717;53.588;10.176;2023-10-08T02:55:10;9.60;99.90
17202;DHT22;8717;53.588;10.176;2023-10-08T02:57:49;9.60;99.90
17202;DHT22;8717;53.588;10.176;2023-10-08T03:00:18;9.60;99.90
17202;DHT22;8717;53.588;10.176;2023-10-08T03:02:46;9.50;99.90
17202;DHT22;8717;53.588;10.176;2023-10-08T03:05:13;9.60;99.90
17202;DHT22;8717;53.588;10.176;2023-10-08T03:07:42;9.50;99.90
17202;DHT22;8717;53.588;10.176;2023-10-08T03:10:10;9.50;99.90
17202;DHT22;8717;53.588;10.176;2023-10-08T03:12:44;9.50;99.90
17202;DHT22;8717;53.588;10.176;2023-10-08T03:15:14;9.50;99.90
17202;DHT22;8717;53.588;10.176;2023-10-08T03:17:55;9.50;99.90
17202;DHT22;8717;53.588;10.176;2023-10-08T03:20:24;9.50;99.90
17202;DHT22;8717;53.588;10.176;2023-10-08T03:22:55;9.50;99.90
17202;DHT22;8717;53.588;10.176;2023-10-08T03:25:23;9.50;99.90
17202;DHT22;8717;53.588;10.176;2023-10-08T03:27:51;9.40;99.90
17202;DHT22;8717;53.588;10.176;2023-10-08T03:30:20;9.40;99.90
17202;DHT22;8717;53.588;10.176;2023-10-08T03:32:48;9.40;99.90
17202;DHT22;8717;53.588;10.176;2023-10-08T03:35:21;9.40;99.90
17202;DHT22;8717;53.588;10.176;2023-10-08T03:37:54;9.40;99.90
17202;DHT22;8717;53.588;10.176;2023-10-08T03:40:41;9.40;99.90
17202;DHT22;8717;53.588;10.176;2023-10-08T03:43:09;9.30;99.90
17202;DHT22;8717;53.588;10.176;2023-10-08T03:45:45;9.30;99.90
17202;DHT22;8717;53.588;10.176;2023-10-08T03:48:17;9.30;99.90
17202;DHT22;8717;53.588;10.176;2023-10-08T03:50:49;9.20;99.90
17202;DHT22;8717;53.588;10.176;2023-10-08T03:53:22;9.20;99.90
17202;DHT22;8717;53.588;10.176;2023-10-08T03:55:50;9.20;99.90
17202;DHT22;8717;53.588;10.176;2023-10-08T03:58:21;9.10;99.90
17202;DHT22;8717;53.588;10.176;2023-10-08T04:00:55;9.10;99.90
17202;DHT22;8717;53.588;10.176;2023-10-08T04:03:33;9.10;99.90
17202;DHT22;8717;53.588;10.176;2023-10-08T04:06:25;9.10;99.90
17202;DHT22;8717;53.588;10.176;2023-10-08T04:08:56;9.00;99.90
17202;DHT22;8717;53.588;10.176;2023-10-08T04:11:38;9.00;99.90
17202;DHT22;8717;53.588;10.176;2023-10-08T04:14:18;8.90;99.90
17202;DHT22;8717;53.588;10.176;2023-10-08T04:16:45;8.90;99.90
17202;DHT22;8717;53.588;10.176;2023-10-08T04:19:12;8.90;99.90
17202;DHT22;8717;53.588;10.176;2023-10-08T04:21:45;8.90;99.90
17202;DHT22;8717;53.588;10.176;2023-10-08T04:24:21;8.90;99.90
17202;DHT22;8717;53.588;10.176;2023-10-08T04:26:55;8.80;99.90
17202;DHT22;8717;53.588;10.176;2023-10-08T04:29:23;8.80;99.90
17202;DHT22;8717;53.588;10.176;2023-10-08T04:31:51;8.80;99.90
17202;DHT22;8717;53.588;10.176;2023-10-08T04:34:28;8.80;99.90
17202;DHT22;8717;53.588;10.176;2023-10-08T04:36:56;8.80;99.90
17202;DHT22;8717;53.588;10.176;2023-10-08T04:39:26;8.70;99.90
17202;DHT22;8717;53.588;10.176;2023-10-08T04:41:58;8.70;99.90
17202;DHT22;8717;53.588;10.176;2023-10-08T04:44:26;8.70;99.90
17202;DHT22;8717;53.588;10.176;2023-10-08T04:46:57;8.70;99.90
17202;DHT22;8717;53.588;10.176;2023-10-08T04:49:30;8.70;99.90
17202;DHT22;8717;53.588;10.176;2023-10-08T04:52:02;8.70;99.90
17202;DHT22;8717;53.588;10.176;2023-10-08T04:54:34;8.60;99.90
17202;DHT22;8717;53.588;10.176;2023-10-08T04:57:07;8.60;99.90
17202;DHT22;8717;53.588;10.176;2023-10-08T04:59:41;8.60;99.90
17202;DHT22;8717;53.588;10.176;2023-10-08T05:02:10;8.70;99.90
17202;DHT22;8717;53.588;10.176;2023-10-08T05:04:48;8.60;99.90
17202;DHT22;8717;53.588;10.176;2023-10-08T05:07:37;8.70;99.90
17202;DHT22;8717;53.588;10.176;2023-10-08T05:10:21;8.60;99.90
17202;DHT22;8717;53.588;10.176;2023-10-08T05:13:06;8.60;99.90
17202;DHT22;8717;53.588;10.176;2023-10-08T05:15:42;8.70;99.90
17202;DHT22;8717;53.588;10.176;2023-10-08T05:18:27;8.70;99.90
17202;DHT22;8717;53.588;10.176;2023-10-08T05:21:14;8.60;99.90
17202;DHT22;8717;53.588;10.176;2023-10-08T05:23:52;8.70;99.90
17202;DHT22;8717;53.588;10.176;2023-10-08T05:26:39;8.60;99.90
17202;DHT22;8717;53.588;10.176;2023-10-08T05:29:11;8.60;99.90
17202;DHT22;8717;53.588;10.176;2023-10-08T05:32:03;8.60;99.90
17202;DHT22;8717;53.588;10.176;2023-10-08T05:34:47;8.60;99.90
17202;DHT22;8717;53.588;10.176;2023-10-08T05:37:38;8.60;99.90
17202;DHT22;8717;53.588;10.176;2023-10-08T05:40:10;8.60;99.90
17202;DHT22;8717;53.588;10.176;2023-10-08T05:43:03;8.60;99.90
17202;DHT22;8717;53.588;10.176;2023-10-08T05:45:48;8.60;99.90
17202;DHT22;8717;53.588;10.176;2023-10-08T05:48:39;8.60;99.90
17202;DHT22;8717;53.588;10.176;2023-10-08T05:51:16;8.60;99.90
17202;DHT22;8717;53.588;10.176;2023-10-08T05:53:59;8.50;99.90
17202;DHT22;8717;53.588;10.176;2023-10-08T05:56:37;8.50;99.90
17202;DHT22;8717;53.588;10.176;2023-10-08T05:59:29;8.50;99.90
17202;DHT22;8717;53.588;10.176;2023-10-08T06:02:06;8.50;99.90
17202;DHT22;8717;53.588;10.176;2023-10-08T06:04:53;8.50;99.90
17202;DHT22;8717;53.588;10.176;2023-10-08T06:07:36;8.50;99.90
17202;DHT22;8717;53.588;10.176;2023-10-08T06:10:13;8.50;99.90
17202;DHT22;8717;53.588;10.176;2023-10-08T06:13:06;8.50;99.90
17202;DHT22;8717;53.588;10.176;2023-10-08T06:15:36;8.40;99.90
17202;DHT22;8717;53.588;10.176;2023-10-08T06:18:10;8.40;99.90
17202;DHT22;8717;53.588;10.176;2023-10-08T06:20:36;8.30;99.90
17202;DHT22;8717;53.588;10.176;2023-10-08T06:23:06;8.30;99.90
17202;DHT22;8717;53.588;10.176;2023-10-08T06:25:32;8.30;99.90
17202;DHT22;8717;53.588;10.176;2023-10-08T06:28:12;8.30;99.90
17202;DHT22;8717;53.588;10.176;2023-10-08T06:30:40;8.20;99.90
17202;DHT22;8717;53.588;10.176;2023-10-08T06:33:10;8.20;99.90
17202;DHT22;8717;53.588;10.176;2023-10-08T06:35:36;8.20;99.90
17202;DHT22;8717;53.588;10.176;2023-10-08T06:38:03;8.10;99.90
17202;DHT22;8717;53.588;10.176;2023-10-08T06:40:35;8.10;99.90
17202;DHT22;8717;53.588;10.176;2023-10-08T06:43:07;8.10;99.90
17202;DHT22;8717;53.588;10.176;2023-10-08T06:45:48;8.10;99.90
17202;DHT22;8717;53.588;10.176;2023-10-08T06:48:18;8.10;99.90
17202;DHT22;8717;53.588;10.176;2023-10-08T06:50:46;8.10;99.90
17202;DHT22;8717;53.588;10.176;2023-10-08T06:53:14;8.10;99.90
17202;DHT22;8717;53.588;10.176;2023-10-08T06:55:41;8.10;99.90
17202;DHT22;8717;53.588;10.176;2023-10-08T06:58:08;8.10;99.90
17202;DHT22;8717;53.588;10.176;2023-10-08T07:00:38;8.20;99.90
17202;DHT22;8717;53.588;10.176;2023-10-08T07:03:09;8.20;99.90
17202;DHT22;8717;53.588;10.176;2023-10-08T07:05:37;8.20;99.90
17202;DHT22;8717;53.588;10.176;2023-10-08T07:08:07;8.20;99.90
17202;DHT22;8717;53.588;10.176;2023-10-08T07:10:34;8.20;99.90
17202;DHT22;8717;53.588;10.176;2023-10-08T07:13:01;8.30;99.90
17202;DHT22;8717;53.588;10.176;2023-10-08T07:15:30;8.30;99.90
17202;DHT22;8717;53.588;10.176;2023-10-08T07:17:58;8.30;99.90
17202;DHT22;8717;53.588;10.176;2023-10-08T07:20:39;8.40;99.90
17202;DHT22;8717;53.588;10.176;2023-10-08T07:23:08;8.40;99.90
17202;DHT22;8717;53.588;10.176;2023-10-08T07:25:52;8.40;99.90
17202;DHT22;8717;53.588;10.176;2023-10-08T07:28:22;8.40;99.90
17202;DHT22;8717;53.588;10.176;2023-10-08T07:30:51;8.50;99.90
17202;DHT22;8717;53.588;10.176;2023-10-08T07:33:18;8.50;99.90
17202;DHT22;8717;53.588;10.176;2023-10-08T07:35:47;8.60;99.90
17202;DHT22;8717;53.588;10.176;2023-10-08T07:38:20;8.60;99.90
17202;DHT22;8717;53.588;10.176;2023-10-08T07:40:48;8.60;99.90
17202;DHT22;8717;53.588;10.176;2023-10-08T07:43:15;8.70;99.90
17202;DHT22;8717;53.588;10.176;2023-10-08T07:45:46;8.70;99.90
17202;DHT22;8717;53.588;10.176;2023-10-08T07:48:12;8.80;99.90
17202;DHT22;8717;53.588;10.176;2023-10-08T07:50:45;8.80;99.90
17202;DHT22;8717;53.588;10.176;2023-10-08T07:53:12;8.90;99.90
17202;DHT22;8717;53.588;10.176;2023-10-08T07:55:45;8.90;99.90
17202;DHT22;8717;53.588;10.176;2023-10-08T07:58:14;9.00;99.90
17202;DHT22;8717;53.588;10.176;2023-10-08T08:00:41;9.00;99.90
17202;DHT22;8717;53.588;10.176;2023-10-08T08:03:18;9.00;99.90
17202;DHT22;8717;53.588;10.176;2023-10-08T08:05:46;9.10;99.90
17202;DHT22;8717;53.588;10.176;2023-10-08T08:08:13;9.10;99.90
17202;DHT22;8717;53.588;10.176;2023-10-08T08:10:43;9.20;99.90
17202;DHT22;8717;53.588;10.176;2023-10-08T08:13:11;9.20;99.90
17202;DHT22;8717;53.588;10.176;2023-10-08T08:15:39;9.20;99.90
17202;DHT22;8717;53.588;10.176;2023-10-08T08:18:10;9.30;99.90
17202;DHT22;8717;53.588;10.176;2023-10-08T08:20:49;9.30;99.90
17202;DHT22;8717;53.588;10.176;2023-10-08T08:23:16;9.50;99.90
17202;DHT22;8717;53.588;10.176;2023-10-08T08:25:43;9.60;99.90
17202;DHT22;8717;53.588;10.176;2023-10-08T08:28:31;9.70;99.90
17202;DHT22;8717;53.588;10.176;2023-10-08T08:31:02;9.90;99.90
17202;DHT22;8717;53.588;10.176;2023-10-08T08:33:30;10.20;99.90
17202;DHT22;8717;53.588;10.176;2023-10-08T08:36:19;10.60;99.90
17202;DHT22;8717;53.588;10.176;2023-10-08T08:38:46;11.10;99.90
17202;DHT22;8717;53.588;10.176;2023-10-08T08:41:13;11.60;99.90
17202;DHT22;8717;53.588;10.176;2023-10-08T08:43:44;12.20;99.90
17202;DHT22;8717;53.588;10.176;2023-10-08T08:46:13;12.70;99.90
17202;DHT22;8717;53.588;10.176;2023-10-08T08:48:42;13.30;99.90
17202;DHT22;8717;53.588;10.176;2023-10-08T08:51:10;13.70;99.90
17202;DHT22;8717;53.588;10.176;2023-10-08T08:53:39;14.10;99.90
17202;DHT22;8717;53.588;10.176;2023-10-08T08:56:07;14.50;99.90
17202;DHT22;8717;53.588;10.176;2023-10-08T08:58:36;14.90;99.90
17202;DHT22;8717;53.588;10.176;2023-10-08T09:01:05;15.20;99.90
17202;DHT22;8717;53.588;10.176;2023-10-08T09:03:33;15.60;99.90
17202;DHT22;8717;53.588;10.176;2023-10-08T09:06:00;15.90;99.90
17202;DHT22;8717;53.588;10.176;2023-10-08T09:08:33;16.10;99.90
17202;DHT22;8717;53.588;10.176;2023-10-08T09:11:02;16.30;99.90
17202;DHT22;8717;53.588;10.176;2023-10-08T09:13:34;16.60;99.90
17202;DHT22;8717;53.588;10.176;2023-10-08T09:16:08;16.70;99.90
17202;DHT22;8717;53.588;10.176;2023-10-08T09:18:34;16.90;99.90
17202;DHT22;8717;53.588;10.176;2023-10-08T09:21:09;17.00;99.90
17202;DHT22;8717;53.588;10.176;2023-10-08T09:23:39;17.20;99.90
17202;DHT22;8717;53.588;10.176;2023-10-08T09:26:10;17.20;99.90
17202;DHT22;8717;53.588;10.176;2023-10-08T09:28:39;17.30;99.90
17202;DHT22;8717;53.588;10.176;2023-10-08T09:31:10;17.40;99.90
17202;DHT22;8717;53.588;10.176;2023-10-08T09:33:37;17.60;99.90
17202;DHT22;8717;53.588;10.176;2023-10-08T09:36:04;17.60;99.90
17202;DHT22;8717;53.588;10.176;2023-10-08T09:38:33;17.60;99.90
17202;DHT22;8717;53.588;10.176;2023-10-08T09:41:00;17.60;99.90
17202;DHT22;8717;53.588;10.176;2023-10-08T09:43:29;17.40;99.90
17202;DHT22;8717;53.588;10.176;2023-10-08T09:46:03;17.30;99.90
17202;DHT22;8717;53.588;10.176;2023-10-08T09:48:37;17.20;99.90
17202;DHT22;8717;53.588;10.176;2023-10-08T09:51:05;17.00;99.90
17202;DHT22;8717;53.588;10.176;2023-10-08T09:53:39;16.90;99.90
17202;DHT22;8717;53.588;10.176;2023-10-08T09:56:13;16.80;99.90
17202;DHT22;8717;53.588;10.176;2023-10-08T09:58:42;16.70;99.90
17202;DHT22;8717;53.588;10.176;2023-10-08T10:01:10;16.60;99.90
17202;DHT22;8717;53.588;10.176;2023-10-08T10:03:37;16.60;99.90
17202;DHT22;8717;53.588;10.176;2023-10-08T10:06:11;16.60;99.90
17202;DHT22;8717;53.588;10.176;2023-10-08T10:08:41;16.70;99.90
17202;DHT22;8717;53.588;10.176;2023-10-08T10:11:08;16.90;99.90
17202;DHT22;8717;53.588;10.176;2023-10-08T10:13:40;17.00;99.90
17202;DHT22;8717;53.588;10.176;2023-10-08T10:16:09;17.10;99.90
17202;DHT22;8717;53.588;10.176;2023-10-08T10:18:36;17.20;99.90
17202;DHT22;8717;53.588;10.176;2023-10-08T10:21:24;17.30;99.90
17202;DHT22;8717;53.588;10.176;2023-10-08T10:23:53;17.40;99.90
17202;DHT22;8717;53.588;10.176;2023-10-08T10:26:24;17.40;99.90
17202;DHT22;8717;53.588;10.176;2023-10-08T10:29:18;17.40;99.90
17202;DHT22;8717;53.588;10.176;2023-10-08T10:31:47;17.40;99.90
17202;DHT22;8717;53.588;10.176;2023-10-08T10:34:16;17.40;99.90
17202;DHT22;8717;53.588;10.176;2023-10-08T10:36:45;17.50;99.90
17202;DHT22;8717;53.588;10.176;2023-10-08T10:39:15;17.60;99.90
17202;DHT22;8717;53.588;10.176;2023-10-08T10:41:44;17.80;99.90
17202;DHT22;8717;53.588;10.176;2023-10-08T10:44:11;18.00;99.90
17202;DHT22;8717;53.588;10.176;2023-10-08T10:46:41;18.20;99.90
17202;DHT22;8717;53.588;10.176;2023-10-08T10:49:09;18.40;99.90
17202;DHT22;8717;53.588;10.176;2023-10-08T10:51:48;18.60;99.90
17202;DHT22;8717;53.588;10.176;2023-10-08T10:54:18;18.80;99.90
17202;DHT22;8717;53.588;10.176;2023-10-08T10:56:49;18.90;99.00
17202;DHT22;8717;53.588;10.176;2023-10-08T10:59:29;18.90;99.20
17202;DHT22;8717;53.588;10.176;2023-10-08T11:02:02;18.90;98.90
17202;DHT22;8717;53.588;10.176;2023-10-08T11:04:35;18.70;98.50
17202;DHT22;8717;53.588;10.176;2023-10-08T11:07:13;18.50;98.60
17202;DHT22;8717;53.588;10.176;2023-10-08T11:09:42;18.30;99.90
17202;DHT22;8717;53.588;10.176;2023-10-08T11:12:10;18.20;99.90
17202;DHT22;8717;53.588;10.176;2023-10-08T11:14:46;18.20;99.90
17202;DHT22;8717;53.588;10.176;2023-10-08T11:17:15;18.40;99.90
17202;DHT22;8717;53.588;10.176;2023-10-08T11:19:43;18.50;99.90
17202;DHT22;8717;53.588;10.176;2023-10-08T11:22:12;18.70;99.90
17202;DHT22;8717;53.588;10.176;2023-10-08T11:24:43;18.90;99.90
17202;DHT22;8717;53.588;10.176;2023-10-08T11:27:13;19.10;99.90
17202;DHT22;8717;53.588;10.176;2023-10-08T11:29:43;19.20;99.90
17202;DHT22;8717;53.588;10.176;2023-10-08T11:32:11;19.30;99.90
17202;DHT22;8717;53.588;10.176;2023-10-08T11:34:42;19.50;98.50
17202;DHT22;8717;53.588;10.176;2023-10-08T11:37:11;19.50;98.30
17202;DHT22;8717;53.588;10.176;2023-10-08T11:39:46;19.60;98.00
17202;DHT22;8717;53.588;10.176;2023-10-08T11:42:16;19.60;98.30
17202;DHT22;8717;53.588;10.176;2023-10-08T11:45:00;19.50;97.30
17202;DHT22;8717;53.588;10.176;2023-10-08T11:47:43;19.40;96.50
17202;DHT22;8717;53.588;10.176;2023-10-08T11:50:12;19.20;96.10
17202;DHT22;8717;53.588;10.176;2023-10-08T11:52:46;19.00;95.50
17202;DHT22;8717;53.588;10.176;2023-10-08T11:55:13;18.80;96.70
17202;DHT22;8717;53.588;10.176;2023-10-08T11:57:45;18.70;95.90
17202;DHT22;8717;53.588;10.176;2023-10-08T12:00:15;18.60;95.70
17202;DHT22;8717;53.588;10.176;2023-10-08T12:02:46;18.40;95.60
17202;DHT22;8717;53.588;10.176;2023-10-08T12:05:14;18.30;96.00
17202;DHT22;8717;53.588;10.176;2023-10-08T12:07:46;18.20;94.50
17202;DHT22;8717;53.588;10.176;2023-10-08T12:10:16;18.10;94.60
17202;DHT22;8717;53.588;10.176;2023-10-08T12:12:48;18.00;95.70
17202;DHT22;8717;53.588;10.176;2023-10-08T12:15:15;17.90;96.40
17202;DHT22;8717;53.588;10.176;2023-10-08T12:17:46;17.90;96.80
17202;DHT22;8717;53.588;10.176;2023-10-08T12:20:44;17.90;96.10
17202;DHT22;8717;53.588;10.176;2023-10-08T12:23:12;18.00;96.60
17202;DHT22;8717;53.588;10.176;2023-10-08T12:25:48;18.00;95.90
17202;DHT22;8717;53.588;10.176;2023-10-08T12:28:17;18.10;95.90
17202;DHT22;8717;53.588;10.176;2023-10-08T12:30:44;18.10;95.50
17202;DHT22;8717;53.588;10.176;2023-10-08T12:33:11;18.10;95.60
17202;DHT22;8717;53.588;10.176;2023-10-08T12:35:41;18.20;95.50
17202;DHT22;8717;53.588;10.176;2023-10-08T12:38:10;18.20;95.30
17202;DHT22;8717;53.588;10.176;2023-10-08T12:40:36;18.30;94.40
17202;DHT22;8717;53.588;10.176;2023-10-08T12:43:13;18.30;94.80
17202;DHT22;8717;53.588;10.176;2023-10-08T12:45:42;18.30;93.70
17202;DHT22;8717;53.588;10.176;2023-10-08T12:48:10;18.30;93.50
17202;DHT22;8717;53.588;10.176;2023-10-08T12:50:39;18.20;93.60
17202;DHT22;8717;53.588;10.176;2023-10-08T12:53:10;18.10;92.80
17202;DHT22;8717;53.588;10.176;2023-10-08T12:55:37;18.10;92.50
17202;DHT22;8717;53.588;10.176;2023-10-08T12:58:05;18.00;93.30
17202;DHT22;8717;53.588;10.176;2023-10-08T13:00:37;18.00;93.70
17202;DHT22;8717;53.588;10.176;2023-10-08T13:03:08;17.90;93.50
17202;DHT22;8717;53.588;10.176;2023-10-08T13:05:40;17.90;94.30
17202;DHT22;8717;53.588;10.176;2023-10-08T13:08:19;17.90;94.40
17202;DHT22;8717;53.588;10.176;2023-10-08T13:10:46;17.90;94.10
17202;DHT22;8717;53.588;10.176;2023-10-08T13:13:13;17.80;93.50
17202;DHT22;8717;53.588;10.176;2023-10-08T13:15:40;17.80;94.50
17202;DHT22;8717;53.588;10.176;2023-10-08T13:18:10;17.70;95.50
17202;DHT22;8717;53.588;10.176;2023-10-08T13:20:37;17.60;94.40
17202;DHT22;8717;53.588;10.176;2023-10-08T13:23:06;17.60;94.50
17202;DHT22;8717;53.588;10.176;2023-10-08T13:25:34;17.60;94.30
17202;DHT22;8717;53.588;10.176;2023-10-08T13:28:05;17.50;93.20
17202;DHT22;8717;53.588;10.176;2023-10-08T13:30:36;17.40;93.80
17202;DHT22;8717;53.588;10.176;2023-10-08T13:33:07;17.40;93.70
17202;DHT22;8717;53.588;10.176;2023-10-08T13:35:35;17.30;94.20
17202;DHT22;8717;53.588;10.176;2023-10-08T13:38:04;17.30;94.60
17202;DHT22;8717;53.588;10.176;2023-10-08T13:40:36;17.30;94.20
17202;DHT22;8717;53.588;10.176;2023-10-08T13:43:08;17.20;94.30
17202;DHT22;8717;53.588;10.176;2023-10-08T13:45:37;17.20;94.80
17202;DHT22;8717;53.588;10.176;2023-10-08T13:48:06;17.20;93.70
17202;DHT22;8717;53.588;10.176;2023-10-08T13:50:36;17.10;94.40
17202;DHT22;8717;53.588;10.176;2023-10-08T13:53:03;17.10;94.30
17202;DHT22;8717;53.588;10.176;2023-10-08T13:55:31;17.00;94.10
17202;DHT22;8717;53.588;10.176;2023-10-08T13:58:01;17.00;94.30
17202;DHT22;8717;53.588;10.176;2023-10-08T14:00:29;16.90;94.30
17202;DHT22;8717;53.588;10.176;2023-10-08T14:03:01;16.90;94.00
17202;DHT22;8717;53.588;10.176;2023-10-08T14:05:33;16.80;94.00
17202;DHT22;8717;53.588;10.176;2023-10-08T14:08:00;16.80;94.20
17202;DHT22;8717;53.588;10.176;2023-10-08T14:10:27;16.70;95.40
17202;DHT22;8717;53.588;10.176;2023-10-08T14:12:55;16.70;95.80
17202;DHT22;8717;53.588;10.176;2023-10-08T14:15:23;16.70;95.60
17202;DHT22;8717;53.588;10.176;2023-10-08T14:17:51;16.70;95.90
17202;DHT22;8717;53.588;10.176;2023-10-08T14:20:21;16.60;95.80
17202;DHT22;8717;53.588;10.176;2023-10-08T14:22:48;16.60;96.10
17202;DHT22;8717;53.588;10.176;2023-10-08T14:25:25;16.60;96.10
17202;DHT22;8717;53.588;10.176;2023-10-08T14:27:58;16.70;96.30
17202;DHT22;8717;53.588;10.176;2023-10-08T14:30:32;16.60;96.40
17202;DHT22;8717;53.588;10.176;2023-10-08T14:33:01;16.60;96.50
17202;DHT22;8717;53.588;10.176;2023-10-08T14:35:29;16.50;96.60
17202;DHT22;8717;53.588;10.176;2023-10-08T14:38:13;16.60;96.50
17202;DHT22;8717;53.588;10.176;2023-10-08T14:40:58;16.50;96.80
17202;DHT22;8717;53.588;10.176;2023-10-08T14:43:57;16.40;98.00
17202;DHT22;8717;53.588;10.176;2023-10-08T14:46:25;16.30;98.40
17202;DHT22;8717;53.588;10.176;2023-10-08T14:48:57;16.30;98.60
17202;DHT22;8717;53.588;10.176;2023-10-08T14:51:24;16.20;99.40
17202;DHT22;8717;53.588;10.176;2023-10-08T14:53:52;16.10;99.20
17202;DHT22;8717;53.588;10.176;2023-10-08T14:56:18;16.10;99.10
17202;DHT22;8717;53.588;10.176;2023-10-08T14:58:46;16.00;99.10
17202;DHT22;8717;53.588;10.176;2023-10-08T15:01:13;15.90;99.60
17202;DHT22;8717;53.588;10.176;2023-10-08T15:03:41;15.80;99.00
17202;DHT22;8717;53.588;10.176;2023-10-08T15:06:08;15.70;99.20
17202;DHT22;8717;53.588;10.176;2023-10-08T15:08:36;15.60;99.90
17202;DHT22;8717;53.588;10.176;2023-10-08T15:11:03;15.50;99.70
17202;DHT22;8717;53.588;10.176;2023-10-08T15:13:32;15.50;99.80
17202;DHT22;8717;53.588;10.176;2023-10-08T15:16:04;15.40;99.50
17202;DHT22;8717;53.588;10.176;2023-10-08T15:18:31;15.30;99.90
17202;DHT22;8717;53.588;10.176;2023-10-08T15:21:08;15.20;99.90
17202;DHT22;8717;53.588;10.176;2023-10-08T15:23:35;15.20;99.90
17202;DHT22;8717;53.588;10.176;2023-10-08T15:26:03;15.10;99.90
17202;DHT22;8717;53.588;10.176;2023-10-08T15:28:30;15.10;99.90
17202;DHT22;8717;53.588;10.176;2023-10-08T15:30:57;15.00;99.90
17202;DHT22;8717;53.588;10.176;2023-10-08T15:33:24;14.90;99.90
17202;DHT22;8717;53.588;10.176;2023-10-08T15:35:52;14.90;99.90
17202;DHT22;8717;53.588;10.176;2023-10-08T15:38:27;14.80;99.90
17202;DHT22;8717;53.588;10.176;2023-10-08T15:41:10;14.80;99.90
17202;DHT22;8717;53.588;10.176;2023-10-08T15:43:39;14.70;99.90
17202;DHT22;8717;53.588;10.176;2023-10-08T15:46:07;14.60;99.90
17202;DHT22;8717;53.588;10.176;2023-10-08T15:48:36;14.60;99.90
17202;DHT22;8717;53.588;10.176;2023-10-08T15:51:03;14.50;99.90
17202;DHT22;8717;53.588;10.176;2023-10-08T15:53:31;14.50;99.90
17202;DHT22;8717;53.588;10.176;2023-10-08T15:56:03;14.40;99.90
17202;DHT22;8717;53.588;10.176;2023-10-08T15:58:30;14.40;99.90
17202;DHT22;8717;53.588;10.176;2023-10-08T16:00:57;14.30;99.90
17202;DHT22;8717;53.588;10.176;2023-10-08T16:03:27;14.20;99.90
17202;DHT22;8717;53.588;10.176;2023-10-08T16:06:00;14.20;99.90